createdAt,value
2018-05-06T00:01:17.003Z,12.20
2018-05-06T00:03:18.007Z,12.10
2018-05-06T00:05:19.003Z,11.90
2018-05-06T00:07:20.365Z,11.80
2018-05-06T00:09:21.487Z,11.80
2018-05-06T00:11:22.878Z,11.90
2018-05-06T00:13:24.115Z,11.90
2018-05-06T00:15:25.470Z,12.00
2018-05-06T00:17:27.385Z,12.00
2018-05-06T00:19:28.406Z,12.00
2018-05-06T00:21:30.125Z,12.00
2018-05-06T00:23:31.277Z,12.00
2018-05-06T00:25:32.782Z,12.10
2018-05-06T00:27:33.912Z,12.10
2018-05-06T00:29:34.976Z,11.90
2018-05-06T00:31:36.023Z,11.90
2018-05-06T00:33:37.106Z,11.80
2018-05-06T00:35:38.941Z,11.70
2018-05-06T00:37:40.076Z,11.70
2018-05-06T00:39:41.440Z,11.70
2018-05-06T00:41:42.850Z,11.70
2018-05-06T00:43:43.881Z,11.80
2018-05-06T00:45:44.874Z,11.80
2018-05-06T00:47:46.896Z,11.80
2018-05-06T00:49:48.034Z,11.70
2018-05-06T00:51:49.517Z,11.70
2018-05-06T00:53:51.325Z,11.70
2018-05-06T00:55:52.314Z,11.70
2018-05-06T00:57:53.295Z,11.80
2018-05-06T00:59:54.317Z,11.80
2018-05-06T01:01:55.292Z,11.80
2018-05-06T01:03:56.638Z,11.70
2018-05-06T01:05:58.162Z,11.60
2018-05-06T01:07:59.174Z,11.60
2018-05-06T01:10:00.183Z,11.60
2018-05-06T01:12:01.186Z,11.60
2018-05-06T01:14:02.537Z,11.30
2018-05-06T01:16:03.889Z,11.30
2018-05-06T01:18:04.898Z,11.40
2018-05-06T01:20:06.245Z,11.40
2018-05-06T01:22:07.607Z,11.40
2018-05-06T01:24:08.618Z,11.40
2018-05-06T01:26:09.598Z,11.30
2018-05-06T01:28:10.610Z,11.30
2018-05-06T01:30:12.063Z,11.20
2018-05-06T01:32:13.065Z,11.20
2018-05-06T01:34:14.030Z,11.30
2018-05-06T01:36:15.015Z,11.30
2018-05-06T01:38:16.018Z,11.40
2018-05-06T01:40:17.054Z,11.40
2018-05-06T01:42:25.167Z,11.40
2018-05-06T01:44:26.162Z,11.30
2018-05-06T01:46:27.562Z,11.10
2018-05-06T01:48:28.532Z,11.10
2018-05-06T01:50:29.893Z,10.70
2018-05-06T01:52:31.068Z,10.70
2018-05-06T01:54:32.098Z,10.60
2018-05-06T01:56:33.092Z,10.50
2018-05-06T01:58:34.443Z,10.60
2018-05-06T02:00:35.449Z,10.60
2018-05-06T02:02:36.443Z,10.50
2018-05-06T02:04:37.406Z,10.40
2018-05-06T02:06:38.369Z,10.50
2018-05-06T02:08:39.738Z,10.30
2018-05-06T02:10:40.714Z,10.30
2018-05-06T02:12:41.704Z,10.20
2018-05-06T02:14:42.719Z,10.20
2018-05-06T02:16:44.074Z,10.20
2018-05-06T02:18:45.058Z,10.20
2018-05-06T02:20:46.080Z,10.20
2018-05-06T02:22:47.214Z,10.20
2018-05-06T02:24:48.190Z,10.30
2018-05-06T02:26:49.182Z,10.40
2018-05-06T02:28:50.159Z,10.40
2018-05-06T02:30:51.194Z,10.50
2018-05-06T02:32:52.182Z,10.50
2018-05-06T02:34:53.192Z,10.50
2018-05-06T02:36:54.571Z,10.10
2018-05-06T02:38:55.554Z,10.10
2018-05-06T02:40:56.929Z,9.90
2018-05-06T02:42:57.927Z,9.90
2018-05-06T02:44:58.921Z,9.90
2018-05-06T02:46:59.917Z,10.00
2018-05-06T02:49:01.426Z,10.10
2018-05-06T02:51:02.416Z,10.10
2018-05-06T02:53:03.455Z,10.10
2018-05-06T02:55:04.478Z,10.00
2018-05-06T02:57:05.450Z,10.10
2018-05-06T02:59:06.422Z,10.10
2018-05-06T03:01:07.769Z,10.10
2018-05-06T03:03:09.110Z,10.10
2018-05-06T03:05:10.082Z,10.10
2018-05-06T03:07:11.089Z,10.10
2018-05-06T03:09:12.447Z,10.00
2018-05-06T03:11:13.450Z,10.00
2018-05-06T03:13:14.451Z,9.90
2018-05-06T03:15:15.466Z,9.90
2018-05-06T03:17:16.474Z,9.80
2018-05-06T03:19:17.829Z,9.90
2018-05-06T03:21:19.197Z,9.90
2018-05-06T03:23:20.195Z,9.90
2018-05-06T03:25:21.534Z,10.10
2018-05-06T03:27:22.507Z,10.20
2018-05-06T03:29:23.802Z,10.20
2018-05-06T03:31:24.793Z,10.40
2018-05-06T03:33:25.821Z,10.60
2018-05-06T03:35:26.846Z,10.60
2018-05-06T03:37:27.907Z,10.70
2018-05-06T03:39:28.902Z,10.70
2018-05-06T03:41:30.699Z,10.70
2018-05-06T03:43:31.711Z,10.70
2018-05-06T03:45:32.678Z,10.80
2018-05-06T03:47:33.671Z,10.90
2018-05-06T03:49:34.677Z,10.90
2018-05-06T03:51:35.674Z,10.80
2018-05-06T03:53:36.706Z,10.90
2018-05-06T03:55:37.682Z,10.90
2018-05-06T03:57:51.054Z,11.00
2018-05-06T04:00:04.535Z,10.80
2018-05-06T04:05:00.675Z,10.80
2018-05-06T04:07:01.683Z,10.70
2018-05-06T04:09:02.686Z,10.70
2018-05-06T04:11:03.697Z,10.60
2018-05-06T04:13:05.063Z,10.60
2018-05-06T04:15:06.037Z,10.60
2018-05-06T04:17:07.020Z,10.60
2018-05-06T04:19:08.641Z,10.70
2018-05-06T04:21:09.669Z,10.70
2018-05-06T04:23:10.629Z,10.80
2018-05-06T04:25:12.026Z,10.70
2018-05-06T04:27:12.989Z,10.80
2018-05-06T04:29:13.987Z,10.80
2018-05-06T04:31:14.970Z,10.80
2018-05-06T04:33:16.314Z,10.80
2018-05-06T04:35:17.707Z,10.60
2018-05-06T04:37:18.703Z,10.60
2018-05-06T04:39:20.066Z,10.60
2018-05-06T04:41:21.034Z,10.60
2018-05-06T04:43:22.037Z,10.60
2018-05-06T04:45:23.008Z,10.60
2018-05-06T04:47:23.987Z,10.50
2018-05-06T04:49:25.924Z,10.50
2018-05-06T04:51:26.955Z,10.40
2018-05-06T04:53:27.931Z,10.60
2018-05-06T04:55:29.043Z,10.70
2018-05-06T04:57:30.385Z,10.50
2018-05-06T04:59:31.738Z,10.50
2018-05-06T05:01:33.242Z,10.70
2018-05-06T05:03:34.234Z,10.70
2018-05-06T05:05:35.198Z,10.70
2018-05-06T05:07:36.214Z,10.70
2018-05-06T05:09:37.242Z,10.70
2018-05-06T05:11:38.156Z,10.80
2018-05-06T05:13:39.770Z,11.00
2018-05-06T05:15:40.747Z,11.00
2018-05-06T05:17:42.102Z,11.10
2018-05-06T05:19:43.097Z,11.10
2018-05-06T05:21:44.085Z,11.10
2018-05-06T05:23:45.054Z,11.20
2018-05-06T05:25:46.084Z,11.30
2018-05-06T05:27:47.077Z,11.40
2018-05-06T05:29:48.075Z,11.40
2018-05-06T05:31:49.250Z,11.60
2018-05-06T05:33:50.240Z,11.60
2018-05-06T05:35:51.232Z,11.80
2018-05-06T05:37:52.234Z,11.80
2018-05-06T05:39:53.602Z,12.00
2018-05-06T05:41:54.569Z,12.00
2018-05-06T05:43:55.542Z,12.10
2018-05-06T05:45:56.923Z,12.30
2018-05-06T05:47:57.973Z,12.30
2018-05-06T05:49:58.905Z,12.30
2018-05-06T05:51:59.889Z,12.40
2018-05-06T05:54:01.245Z,12.50
2018-05-06T05:56:02.610Z,12.60
2018-05-06T05:58:04.634Z,12.60
2018-05-06T06:00:05.645Z,12.70
2018-05-06T06:02:06.643Z,12.70
2018-05-06T06:04:07.711Z,12.90
2018-05-06T06:06:09.026Z,13.10
2018-05-06T06:08:10.038Z,13.10
2018-05-06T06:10:11.644Z,13.30
2018-05-06T06:12:12.645Z,13.30
2018-05-06T06:14:13.618Z,13.30
2018-05-06T06:16:14.618Z,13.30
2018-05-06T06:18:15.630Z,13.40
2018-05-06T06:20:16.624Z,13.40
2018-05-06T06:22:17.613Z,13.60
2018-05-06T06:24:18.693Z,13.70
2018-05-06T06:26:19.777Z,13.80
2018-05-06T06:28:21.134Z,13.80
2018-05-06T06:30:22.127Z,13.80
2018-05-06T06:32:30.049Z,14.00
2018-05-06T06:34:31.066Z,14.20
2018-05-06T06:36:32.062Z,14.30
2018-05-06T06:38:33.043Z,14.40
2018-05-06T06:40:34.392Z,14.30
2018-05-06T06:42:35.738Z,14.30
2018-05-06T06:44:37.136Z,14.50
2018-05-06T06:46:38.410Z,14.50
2018-05-06T06:48:39.417Z,14.60
2018-05-06T06:50:40.420Z,14.60
2018-05-06T06:52:41.398Z,14.70
2018-05-06T06:54:42.382Z,14.80
2018-05-06T06:56:43.382Z,14.90
2018-05-06T06:58:44.558Z,15.00
2018-05-06T07:00:45.529Z,15.00
2018-05-06T07:02:46.499Z,15.00
2018-05-06T07:04:47.849Z,15.20
2018-05-06T07:06:49.230Z,15.30
2018-05-06T07:08:50.251Z,15.30
2018-05-06T07:10:51.230Z,15.50
2018-05-06T07:12:52.207Z,15.40
2018-05-06T07:14:54.882Z,15.50
2018-05-06T07:16:55.872Z,15.70
2018-05-06T07:18:56.845Z,15.70
2018-05-06T07:20:58.203Z,15.80
2018-05-06T07:22:59.163Z,15.80
2018-05-06T07:25:00.131Z,15.90
2018-05-06T07:27:01.134Z,16.10
2018-05-06T07:29:02.314Z,16.30
2018-05-06T07:31:03.290Z,16.40
2018-05-06T07:33:04.571Z,16.30
2018-05-06T07:35:05.554Z,16.50
2018-05-06T07:37:06.537Z,16.60
2018-05-06T07:39:07.538Z,16.60
2018-05-06T07:41:08.538Z,16.80
2018-05-06T07:43:11.330Z,16.80
2018-05-06T07:45:12.900Z,16.90
2018-05-06T07:47:13.903Z,16.90
2018-05-06T07:49:15.237Z,16.80
2018-05-06T07:51:16.589Z,17.00
2018-05-06T07:53:17.952Z,17.10
2018-05-06T07:55:18.940Z,17.10
2018-05-06T07:57:19.947Z,17.20
2018-05-06T07:59:20.944Z,17.30
2018-05-06T08:01:22.310Z,17.20
2018-05-06T08:03:23.302Z,17.20
2018-05-06T08:05:24.299Z,17.30
2018-05-06T08:07:25.281Z,17.40
2018-05-06T08:09:26.652Z,17.40
2018-05-06T08:11:27.646Z,17.40
2018-05-06T08:13:28.617Z,17.50
2018-05-06T08:15:29.614Z,17.70
2018-05-06T08:17:30.691Z,18.10
2018-05-06T08:19:32.006Z,17.80
2018-05-06T08:21:33.346Z,18.00
2018-05-06T08:23:34.370Z,18.00
2018-05-06T08:25:35.351Z,18.40
2018-05-06T08:27:37.103Z,18.60
2018-05-06T08:29:38.236Z,18.40
2018-05-06T08:31:46.319Z,18.50
2018-05-06T08:33:47.692Z,18.80
2018-05-06T08:35:48.658Z,18.80
2018-05-06T08:37:49.688Z,19.00
2018-05-06T08:39:51.856Z,19.20
2018-05-06T08:41:52.991Z,19.20
2018-05-06T08:43:53.943Z,19.10
2018-05-06T08:45:54.921Z,18.90
2018-05-06T08:47:55.898Z,18.90
2018-05-06T08:49:57.138Z,18.70
2018-05-06T08:51:58.125Z,18.50
2018-05-06T08:53:59.471Z,18.80
2018-05-06T08:56:00.495Z,18.70
2018-05-06T08:58:01.830Z,19.20
2018-05-06T09:00:03.174Z,19.20
2018-05-06T09:02:04.534Z,19.40
2018-05-06T09:04:05.888Z,19.50
2018-05-06T09:06:06.857Z,19.50
2018-05-06T09:08:07.841Z,19.50
2018-05-06T09:10:09.194Z,19.60
2018-05-06T09:12:10.174Z,19.60
2018-05-06T09:14:11.198Z,19.20
2018-05-06T09:16:12.167Z,19.30
2018-05-06T09:18:13.139Z,19.70
2018-05-06T09:20:14.166Z,20.20
2018-05-06T09:22:15.502Z,20.20
2018-05-06T09:24:17.073Z,20.50
2018-05-06T09:26:18.057Z,20.50
2018-05-06T09:28:19.038Z,20.60
2018-05-06T09:30:20.106Z,20.50
2018-05-06T09:32:21.125Z,20.70
2018-05-06T09:34:22.478Z,21.00
2018-05-06T09:36:23.468Z,21.00
2018-05-06T09:38:24.842Z,21.40
2018-05-06T09:40:26.007Z,21.40
2018-05-06T09:42:27.006Z,21.50
2018-05-06T09:44:28.068Z,21.70
2018-05-06T09:46:29.102Z,21.50
2018-05-06T09:48:30.109Z,21.40
2018-05-06T09:50:32.127Z,21.40
2018-05-06T09:52:33.112Z,21.20
2018-05-06T09:54:34.090Z,21.50
2018-05-06T09:56:35.076Z,21.90
2018-05-06T09:58:36.079Z,22.00
2018-05-06T10:00:37.062Z,22.00
2018-05-06T10:02:38.055Z,21.90
2018-05-06T10:04:39.434Z,21.90
2018-05-06T10:06:40.464Z,21.90
2018-05-06T10:08:41.451Z,22.10
2018-05-06T10:10:42.506Z,22.30
2018-05-06T10:12:43.919Z,22.30
2018-05-06T10:14:44.915Z,22.30
2018-05-06T10:16:45.948Z,22.10
2018-05-06T10:18:47.028Z,22.40
2018-05-06T10:20:48.151Z,22.00
2018-05-06T10:22:49.206Z,22.00
2018-05-06T10:24:50.196Z,22.50
2018-05-06T10:26:51.395Z,22.30
2018-05-06T10:28:52.440Z,22.10
2018-05-06T10:30:53.420Z,22.60
2018-05-06T10:32:54.395Z,22.90
2018-05-06T10:34:55.411Z,22.80
2018-05-06T10:36:56.461Z,23.20
2018-05-06T10:38:57.538Z,22.90
2018-05-06T10:40:58.929Z,22.70
2018-05-06T10:42:59.905Z,22.70
2018-05-06T10:45:01.291Z,22.80
2018-05-06T10:47:02.362Z,22.80
2018-05-06T10:49:03.359Z,23.00
2018-05-06T10:51:04.655Z,23.10
2018-05-06T10:53:05.736Z,23.10
2018-05-06T10:55:06.698Z,22.90
2018-05-06T10:57:07.771Z,23.00
2018-05-06T10:59:09.139Z,22.80
2018-05-06T11:01:10.771Z,22.80
2018-05-06T11:03:12.120Z,22.90
2018-05-06T11:05:13.597Z,23.50
2018-05-06T11:07:14.592Z,23.50
2018-05-06T11:09:15.926Z,24.90
2018-05-06T11:11:16.917Z,24.90
2018-05-06T11:13:17.949Z,24.80
2018-05-06T11:15:18.927Z,24.30
2018-05-06T11:17:19.900Z,24.50
2018-05-06T11:19:20.902Z,25.00
2018-05-06T11:21:21.910Z,25.40
2018-05-06T11:23:22.894Z,25.60
2018-05-06T11:25:23.965Z,26.30
2018-05-06T11:27:24.958Z,26.20
2018-05-06T11:29:26.321Z,26.70
2018-05-06T11:31:27.303Z,26.70
2018-05-06T11:33:28.374Z,26.70
2018-05-06T11:35:29.479Z,26.20
2018-05-06T11:37:30.450Z,25.50
2018-05-06T11:39:31.483Z,25.50
2018-05-06T11:41:32.631Z,25.70
2018-05-06T11:43:33.630Z,26.10
2018-05-06T11:45:34.642Z,27.30
2018-05-06T11:47:35.637Z,27.80
2018-05-06T11:49:36.641Z,26.50
2018-05-06T11:51:37.627Z,26.70
2018-05-06T11:53:38.643Z,26.70
2018-05-06T11:55:39.645Z,27.00
2018-05-06T11:57:40.649Z,27.90
2018-05-06T11:59:41.647Z,28.70
2018-05-06T12:01:49.769Z,28.20
2018-05-06T12:03:50.979Z,28.00
2018-05-06T12:05:53.159Z,27.80
2018-05-06T12:11:21.823Z,27.80
2018-05-06T12:13:23.208Z,27.30
2018-05-06T12:15:24.170Z,27.30
2018-05-06T12:17:25.220Z,27.80
2018-05-06T12:19:26.176Z,28.20
2018-05-06T12:21:27.171Z,29.10
2018-05-06T12:23:28.218Z,28.30
2018-05-06T12:25:29.220Z,27.30
2018-05-06T12:27:30.355Z,26.70
2018-05-06T12:29:31.342Z,27.20
2018-05-06T12:31:32.416Z,28.00
2018-05-06T12:33:33.479Z,27.40
2018-05-06T12:35:34.401Z,27.50
2018-05-06T12:37:35.366Z,27.60
2018-05-06T12:39:36.344Z,27.50
2018-05-06T12:41:37.708Z,26.70
2018-05-06T12:43:38.713Z,26.70
2018-05-06T12:45:39.739Z,27.50
2018-05-06T12:47:41.000Z,28.20
2018-05-06T12:49:42.354Z,28.40
2018-05-06T12:51:43.363Z,28.40
2018-05-06T12:53:45.410Z,28.10
2018-05-06T12:55:46.415Z,28.00
2018-05-06T12:57:47.383Z,27.40
2018-05-06T12:59:48.402Z,27.10
2018-05-06T13:01:49.486Z,28.00
2018-05-06T13:03:50.904Z,28.90
2018-05-06T13:05:51.899Z,28.90
2018-05-06T13:07:53.161Z,29.20
2018-05-06T13:09:54.135Z,30.00
2018-05-06T13:11:55.502Z,29.80
2018-05-06T13:13:56.509Z,29.80
2018-05-06T13:15:57.898Z,28.50
2018-05-06T13:17:58.932Z,28.50
2018-05-06T13:20:00.103Z,29.30
2018-05-06T13:22:01.069Z,28.50
2018-05-06T13:24:02.523Z,28.80
2018-05-06T13:26:03.447Z,28.80
2018-05-06T13:28:11.790Z,30.00
2018-05-06T13:30:12.936Z,30.10
2018-05-06T13:32:14.670Z,28.70
2018-05-06T13:34:15.655Z,29.90
2018-05-06T13:36:16.634Z,30.60
2018-05-06T13:38:17.935Z,31.50
2018-05-06T13:40:18.930Z,30.90
2018-05-06T13:42:20.061Z,29.80
2018-05-06T13:44:21.046Z,30.00
2018-05-06T13:46:22.179Z,30.20
2018-05-06T13:48:23.167Z,30.80
2018-05-06T13:50:24.162Z,29.70
2018-05-06T13:52:25.160Z,30.40
2018-05-06T13:54:26.426Z,30.80
2018-05-06T13:56:27.440Z,31.80
2018-05-06T13:58:35.493Z,33.10
2018-05-06T14:00:36.895Z,31.90
2018-05-06T14:02:37.894Z,31.90
2018-05-06T14:04:38.888Z,31.70
2018-05-06T14:06:39.982Z,33.00
2018-05-06T14:08:40.963Z,29.30
2018-05-06T14:10:41.927Z,30.10
2018-05-06T14:12:43.089Z,31.20
2018-05-06T14:14:44.066Z,31.70
2018-05-06T14:16:45.063Z,30.90
2018-05-06T14:18:46.070Z,32.10
2018-05-06T14:20:47.152Z,31.70
2018-05-06T14:22:48.157Z,30.50
2018-05-06T14:24:49.139Z,30.00
2018-05-06T14:26:50.283Z,31.60
2018-05-06T14:28:51.290Z,29.70
2018-05-06T14:30:53.043Z,29.30
2018-05-06T14:32:54.036Z,30.00
2018-05-06T14:34:55.015Z,29.60
2018-05-06T14:36:55.998Z,30.50
2018-05-06T14:38:57.067Z,30.70
2018-05-06T14:40:58.212Z,29.50
2018-05-06T14:42:59.210Z,30.50
2018-05-06T14:45:07.086Z,30.90
2018-05-06T14:47:20.769Z,30.70
2018-05-06T14:49:21.770Z,30.70
2018-05-06T14:51:23.102Z,30.90
2018-05-06T14:53:24.482Z,28.60
2018-05-06T14:55:25.465Z,28.60
2018-05-06T14:57:26.438Z,28.30
2018-05-06T14:59:27.538Z,26.60
2018-05-06T15:01:28.522Z,26.00
2018-05-06T15:03:29.507Z,25.50
2018-05-06T15:05:30.634Z,25.60
2018-05-06T15:07:31.606Z,25.30
2018-05-06T15:09:32.963Z,25.20
2018-05-06T15:11:34.050Z,25.20
2018-05-06T15:13:35.187Z,25.10
2018-05-06T15:15:36.175Z,24.90
2018-05-06T15:17:37.154Z,24.80
2018-05-06T15:19:38.163Z,24.40
2018-05-06T15:21:39.147Z,24.90
2018-05-06T15:23:40.102Z,23.90
2018-05-06T15:25:41.440Z,23.80
2018-05-06T15:27:42.789Z,23.60
2018-05-06T15:29:44.129Z,24.20
2018-05-06T15:31:45.126Z,24.20
2018-05-06T15:33:46.121Z,24.10
2018-05-06T15:35:47.119Z,24.10
2018-05-06T15:37:48.105Z,24.20
2018-05-06T15:39:49.093Z,24.00
2018-05-06T15:41:50.439Z,23.40
2018-05-06T15:43:51.804Z,23.50
2018-05-06T15:45:52.790Z,23.50
2018-05-06T15:47:53.774Z,23.50
2018-05-06T15:49:54.771Z,23.60
2018-05-06T15:51:55.904Z,23.20
2018-05-06T15:53:56.923Z,23.30
2018-05-06T15:55:57.914Z,23.30
2018-05-06T15:57:58.915Z,23.30
2018-05-06T15:59:59.914Z,23.40
2018-05-06T16:02:12.124Z,23.30
2018-05-06T16:04:15.087Z,23.30
2018-05-06T16:06:16.092Z,23.50
2018-05-06T16:08:17.439Z,23.10
2018-05-06T16:10:18.765Z,23.20
2018-05-06T16:12:19.734Z,23.20
2018-05-06T16:14:20.706Z,23.30
2018-05-06T16:16:21.966Z,23.40
2018-05-06T16:18:22.946Z,23.10
2018-05-06T16:20:23.935Z,23.10
2018-05-06T16:22:25.107Z,23.10
2018-05-06T16:24:26.010Z,23.00
2018-05-06T16:26:27.033Z,22.90
2018-05-06T16:28:31.633Z,22.80
2018-05-06T16:30:32.621Z,22.80
2018-05-06T16:32:34.049Z,22.80
2018-05-06T16:34:35.318Z,22.80
2018-05-06T16:36:36.310Z,22.60
2018-05-06T16:38:37.266Z,22.70
2018-05-06T16:40:38.629Z,22.70
2018-05-06T16:42:39.662Z,22.70
2018-05-06T16:44:41.037Z,22.80
2018-05-06T16:46:42.046Z,22.80
2018-05-06T16:48:43.049Z,22.80
2018-05-06T16:50:50.886Z,22.80
2018-05-06T16:52:51.873Z,22.70
2018-05-06T16:54:52.878Z,22.60
2018-05-06T16:56:53.972Z,22.40
2018-05-06T16:58:55.490Z,22.40
2018-05-06T17:00:56.466Z,22.40
2018-05-06T17:02:57.442Z,22.40
2018-05-06T17:04:58.438Z,22.30
2018-05-06T17:06:59.502Z,22.30
2018-05-06T17:09:00.398Z,22.40
2018-05-06T17:11:01.381Z,22.40
2018-05-06T17:13:02.375Z,22.30
2018-05-06T17:15:03.386Z,22.40
2018-05-06T17:17:04.782Z,22.40
2018-05-06T17:19:05.780Z,22.40
2018-05-06T17:21:07.147Z,22.30
2018-05-06T17:23:08.125Z,22.30
2018-05-06T17:25:09.301Z,22.30
2018-05-06T17:27:10.669Z,22.20
2018-05-06T17:29:11.669Z,22.30
2018-05-06T17:31:13.043Z,22.10
2018-05-06T17:33:14.043Z,22.10
2018-05-06T17:35:15.549Z,22.00
2018-05-06T17:37:16.558Z,22.00
2018-05-06T17:39:17.615Z,22.00
2018-05-06T17:41:18.639Z,22.00
2018-05-06T17:43:19.697Z,22.00
2018-05-06T17:45:20.748Z,22.00
2018-05-06T17:47:21.749Z,21.90
2018-05-06T17:49:22.758Z,21.80
2018-05-06T17:51:23.749Z,21.60
2018-05-06T17:53:24.710Z,21.60
2018-05-06T17:55:26.068Z,21.40
2018-05-06T17:57:27.469Z,21.40
2018-05-06T17:59:28.469Z,21.40
2018-05-06T18:01:29.446Z,21.30
2018-05-06T18:03:30.454Z,21.30
2018-05-06T18:05:31.495Z,21.20
2018-05-06T18:07:32.581Z,21.20
2018-05-06T18:09:33.510Z,21.10
2018-05-06T18:11:34.894Z,21.10
2018-05-06T18:13:35.874Z,21.10
2018-05-06T18:15:36.859Z,20.90
2018-05-06T18:17:38.001Z,20.90
2018-05-06T18:19:39.007Z,20.80
2018-05-06T18:21:40.398Z,20.60
2018-05-06T18:23:41.415Z,20.60
2018-05-06T18:25:42.483Z,20.60
2018-05-06T18:27:43.472Z,20.50
2018-05-06T18:29:44.463Z,20.50
2018-05-06T18:31:45.737Z,20.40
2018-05-06T18:33:47.253Z,20.20
2018-05-06T18:35:48.259Z,20.20
2018-05-06T18:37:49.249Z,20.10
2018-05-06T18:39:50.615Z,19.90
2018-05-06T18:41:51.611Z,19.90
2018-05-06T18:43:52.582Z,19.90
2018-05-06T18:45:53.570Z,19.70
2018-05-06T18:47:54.567Z,19.70
2018-05-06T18:49:55.854Z,19.70
2018-05-06T18:51:56.867Z,19.70
2018-05-06T18:53:57.867Z,19.70
2018-05-06T18:55:58.862Z,19.60
2018-05-06T18:57:59.846Z,19.60
2018-05-06T19:00:00.868Z,19.50
2018-05-06T19:02:01.867Z,19.40
2018-05-06T19:04:02.855Z,19.50
2018-05-06T19:06:03.966Z,19.50
2018-05-06T19:08:05.174Z,19.40
2018-05-06T19:10:06.174Z,19.40
2018-05-06T19:12:07.147Z,19.20
2018-05-06T19:14:08.162Z,19.20
2018-05-06T19:16:09.145Z,19.10
2018-05-06T19:18:10.111Z,19.10
2018-05-06T19:20:11.166Z,18.90
2018-05-06T19:22:12.302Z,18.80
2018-05-06T19:24:15.876Z,18.80
2018-05-06T19:26:17.475Z,18.60
2018-05-06T19:28:18.626Z,18.60
2018-05-06T19:30:20.010Z,18.60
2018-05-06T19:32:21.034Z,18.60
2018-05-06T19:34:22.063Z,18.60
2018-05-06T19:36:23.094Z,18.50
2018-05-06T19:38:24.104Z,18.50
2018-05-06T19:40:25.854Z,18.30
2018-05-06T19:42:26.948Z,18.30
2018-05-06T19:44:27.955Z,18.40
2018-05-06T19:46:29.512Z,18.10
2018-05-06T19:48:30.515Z,18.10
2018-05-06T19:50:31.531Z,18.10
2018-05-06T19:52:32.568Z,18.10
2018-05-06T19:54:33.584Z,18.10
2018-05-06T19:56:34.714Z,17.90
2018-05-06T19:58:35.740Z,17.80
2018-05-06T20:00:36.744Z,17.90
2018-05-06T20:02:38.146Z,17.90
2018-05-06T20:04:39.147Z,17.90
2018-05-06T20:06:40.148Z,17.90
2018-05-06T20:08:41.135Z,17.90
2018-05-06T20:10:42.170Z,17.80
2018-05-06T20:12:43.139Z,17.90
2018-05-06T20:14:44.114Z,17.70
2018-05-06T20:16:45.239Z,17.70
2018-05-06T20:18:46.248Z,17.50
2018-05-06T20:20:47.267Z,17.40
2018-05-06T20:22:48.563Z,17.40
2018-05-06T20:24:49.906Z,17.30
2018-05-06T20:26:50.923Z,17.30
2018-05-06T20:28:52.294Z,17.30
2018-05-06T20:30:53.279Z,17.30
2018-05-06T20:32:54.323Z,17.20
2018-05-06T20:34:55.314Z,17.20
2018-05-06T20:36:56.304Z,17.10
2018-05-06T20:41:45.795Z,17.00
2018-05-06T20:43:47.277Z,17.00
2018-05-06T20:45:48.506Z,17.00
2018-05-06T20:47:49.523Z,16.90
2018-05-06T20:49:50.860Z,16.80
2018-05-06T20:51:52.199Z,16.80
2018-05-06T20:53:53.770Z,16.80
2018-05-06T20:55:54.749Z,16.80
2018-05-06T20:57:55.733Z,16.80
2018-05-06T20:59:56.702Z,16.70
2018-05-06T21:01:57.666Z,16.70
2018-05-06T21:03:58.671Z,16.70
2018-05-06T21:05:59.612Z,16.70
2018-05-06T21:08:00.588Z,16.70
2018-05-06T21:10:01.929Z,16.50
2018-05-06T21:12:03.392Z,16.50
2018-05-06T21:14:04.735Z,16.40
2018-05-06T21:16:06.080Z,16.30
2018-05-06T21:18:07.423Z,16.10
2018-05-06T21:20:08.963Z,16.10
2018-05-06T21:22:10.454Z,16.10
2018-05-06T21:24:16.046Z,16.10
2018-05-06T21:26:17.391Z,16.30
2018-05-06T21:28:18.942Z,16.20
2018-05-06T21:30:20.454Z,16.20
2018-05-06T21:32:21.464Z,16.20
2018-05-06T21:34:22.845Z,16.10
2018-05-06T21:36:23.879Z,16.10
2018-05-06T21:38:25.086Z,16.10
2018-05-06T21:40:26.383Z,16.00
2018-05-06T21:42:27.782Z,16.00
2018-05-06T21:44:28.915Z,16.00
2018-05-06T21:46:30.034Z,15.90
2018-05-06T21:48:31.093Z,15.90
2018-05-06T21:50:32.280Z,15.90
2018-05-06T21:52:33.665Z,15.70
2018-05-06T21:54:34.878Z,15.70
2018-05-06T21:56:35.821Z,15.70
2018-05-06T21:58:37.059Z,15.70
2018-05-06T22:00:38.670Z,15.60
2018-05-06T22:02:39.653Z,15.60
2018-05-06T22:04:40.669Z,15.40
2018-05-06T22:06:42.076Z,15.20
2018-05-06T22:08:43.202Z,15.20
2018-05-06T22:10:44.198Z,15.40
2018-05-06T22:12:45.531Z,15.30
2018-05-06T22:14:46.510Z,15.30
2018-05-06T22:16:47.556Z,15.30
2018-05-06T22:18:48.540Z,15.30
2018-05-06T22:20:49.849Z,15.40
2018-05-06T22:22:50.801Z,15.40
2018-05-06T22:24:52.162Z,15.20
2018-05-06T22:26:53.599Z,15.20
2018-05-06T22:28:55.103Z,15.30
2018-05-06T22:30:56.226Z,15.30
2018-05-06T22:32:57.198Z,15.10
2018-05-06T22:34:58.153Z,15.00
2018-05-06T22:36:59.586Z,15.30
2018-05-06T22:39:00.518Z,15.30
2018-05-06T22:41:01.865Z,15.30
2018-05-06T22:43:03.197Z,15.20
2018-05-06T22:45:11.058Z,15.10
2018-05-06T22:47:11.998Z,15.20
2018-05-06T22:49:12.943Z,15.20
2018-05-06T22:51:13.998Z,15.20
2018-05-06T22:53:15.066Z,15.30
2018-05-06T22:55:16.063Z,15.20
2018-05-06T22:57:17.047Z,15.20
2018-05-06T22:59:18.029Z,15.20
2018-05-06T23:01:20.035Z,15.20
2018-05-06T23:03:20.986Z,15.10
2018-05-06T23:05:22.226Z,15.00
2018-05-06T23:07:23.218Z,15.10
2018-05-06T23:09:24.561Z,15.10
2018-05-06T23:11:25.865Z,15.00
2018-05-06T23:13:26.810Z,15.00
2018-05-06T23:15:27.758Z,14.90
2018-05-06T23:17:28.711Z,14.90
2018-05-06T23:19:30.029Z,15.00
2018-05-06T23:21:30.970Z,15.00
2018-05-06T23:23:31.910Z,14.90
2018-05-06T23:25:32.845Z,14.90
2018-05-06T23:27:33.799Z,14.90
2018-05-06T23:29:35.108Z,14.90
2018-05-06T23:31:36.061Z,15.00
2018-05-06T23:33:37.387Z,14.90
2018-05-06T23:35:38.345Z,14.90
2018-05-06T23:37:39.663Z,14.80
2018-05-06T23:39:40.790Z,14.80
2018-05-06T23:41:41.779Z,14.90
2018-05-06T23:43:42.782Z,14.90
2018-05-06T23:45:43.661Z,14.90
2018-05-06T23:47:44.609Z,14.90
2018-05-06T23:49:45.675Z,14.90
2018-05-06T23:51:46.936Z,14.90
2018-05-06T23:53:48.269Z,14.90
2018-05-06T23:55:49.228Z,14.90
2018-05-06T23:57:51.141Z,15.00
2018-05-06T23:59:52.105Z,14.90
